Time;durP1;ratioP1;P1;durP2;ratioP2;P2;SDS_P1;SDS_P2;PMS_P1;PMS_P2;Temp;Humidity;BMP_temperature;BMP_pressure;BME280_temperature;BME280_humidity;BME280_pressure;Samples;Min_cycle;Max_cycle;Signal;HPM_P1;HPM_P2
2021/03/24 00:00:40;;;;;;;13.07;8.57;;;3.80;66.40;;;;;;5013497;28;20384;-71
2021/03/24 00:03:06;;;;;;;17.35;9.38;;;3.80;66.40;;;;;;5013681;28;20050;-71
2021/03/24 00:05:35;;;;;;;16.77;9.32;;;3.80;66.20;;;;;;5013166;28;20105;-71
2021/03/24 00:08:01;;;;;;;16.83;9.38;;;3.80;66.20;;;;;;5013601;28;20030;-71
2021/03/24 00:10:29;;;;;;;12.88;8.48;;;3.80;66.20;;;;;;5011941;28;20034;-71
2021/03/24 00:12:56;;;;;;;15.23;9.50;;;3.70;66.40;;;;;;5013411;28;20022;-70
2021/03/24 00:15:23;;;;;;;12.98;8.75;;;3.80;66.60;;;;;;5013328;28;20345;-70
2021/03/24 00:17:49;;;;;;;17.40;9.65;;;3.80;66.60;;;;;;5013447;28;20060;-72
2021/03/24 00:20:17;;;;;;;16.20;9.02;;;3.80;66.70;;;;;;5013237;28;20413;-70
2021/03/24 00:22:43;;;;;;;17.90;9.80;;;3.80;66.60;;;;;;5013667;28;20022;-70
2021/03/24 00:25:12;;;;;;;17.77;9.57;;;3.80;66.60;;;;;;5012136;28;20562;-73
2021/03/24 00:27:38;;;;;;;18.73;9.82;;;3.70;66.60;;;;;;5013051;28;20116;-70
2021/03/24 00:30:05;;;;;;;18.63;9.68;;;3.70;66.60;;;;;;5013435;28;20070;-70
2021/03/24 00:32:30;;;;;;;15.35;10.23;;;3.70;66.70;;;;;;5013179;28;20416;-70
2021/03/24 00:34:56;;;;;;;17.17;10.02;;;3.70;66.80;;;;;;5013330;28;20065;-70
2021/03/24 00:37:22;;;;;;;14.88;9.48;;;3.60;67.00;;;;;;5012833;28;20413;-70
2021/03/24 00:39:47;;;;;;;17.77;10.48;;;3.60;67.10;;;;;;5012868;28;20065;-70
2021/03/24 00:42:13;;;;;;;16.50;9.82;;;3.60;67.20;;;;;;5013093;28;20022;-71
2021/03/24 00:44:39;;;;;;;16.67;9.93;;;3.60;67.40;;;;;;5013415;28;20042;-71
2021/03/24 00:47:05;;;;;;;17.27;9.77;;;3.60;67.60;;;;;;5012943;28;20062;-70
2021/03/24 00:49:30;;;;;;;17.08;9.82;;;3.50;67.70;;;;;;5013099;28;20034;-70
2021/03/24 00:51:56;;;;;;;18.48;10.20;;;3.60;67.90;;;;;;5012977;28;20030;-70
2021/03/24 00:54:22;;;;;;;18.20;10.07;;;3.60;67.80;;;;;;5012807;28;20022;-70
2021/03/24 00:56:47;;;;;;;18.27;9.82;;;3.60;67.90;;;;;;5013011;28;20388;-70
2021/03/24 00:59:14;;;;;;;16.13;9.48;;;3.60;68.10;;;;;;5013067;28;20037;-70
2021/03/24 01:01:41;;;;;;;14.75;8.93;;;3.60;68.30;;;;;;5013502;28;20112;-70
2021/03/24 01:04:07;;;;;;;15.63;9.23;;;3.60;68.30;;;;;;5013121;28;20044;-70
2021/03/24 01:06:35;;;;;;;15.77;9.95;;;3.60;68.20;;;;;;5013468;28;20037;-70
2021/03/24 01:09:01;;;;;;;14.98;9.80;;;3.60;68.30;;;;;;5016596;28;20033;-70
2021/03/24 01:11:26;;;;;;;17.02;9.15;;;3.60;68.40;;;;;;5016728;28;20448;-70
2021/03/24 01:13:52;;;;;;;15.85;9.07;;;3.60;68.30;;;;;;5017062;28;20026;-70
2021/03/24 01:16:18;;;;;;;17.05;9.88;;;3.50;68.50;;;;;;5016700;28;20062;-70
2021/03/24 01:18:43;;;;;;;15.90;9.07;;;3.50;68.60;;;;;;5016403;28;20511;-70
2021/03/24 01:21:09;;;;;;;17.00;9.43;;;3.50;68.70;;;;;;5016573;28;20111;-70
2021/03/24 01:23:35;;;;;;;14.60;9.30;;;3.50;68.80;;;;;;5016467;28;20026;-70
2021/03/24 01:26:01;;;;;;;15.05;8.55;;;3.50;68.70;;;;;;5016502;28;20037;-70
2021/03/24 01:28:29;;;;;;;16.23;8.75;;;3.50;68.70;;;;;;5015091;28;20026;-70
2021/03/24 01:30:57;;;;;;;15.25;9.18;;;3.50;68.70;;;;;;5016148;28;20502;-70
2021/03/24 01:33:24;;;;;;;15.43;9.05;;;3.50;68.80;;;;;;5016270;28;20026;-70
2021/03/24 01:35:49;;;;;;;15.70;9.35;;;3.50;69.00;;;;;;5016524;28;20038;-70
2021/03/24 01:38:15;;;;;;;13.98;8.70;;;3.50;69.20;;;;;;5016185;28;20525;-71
2021/03/24 01:40:50;;;;;;;14.30;8.18;;;3.50;69.20;;;;;;5015984;28;20080;-70
2021/03/24 01:43:23;;;;;;;14.13;8.75;;;3.50;69.20;;;;;;5014831;28;20026;-70
2021/03/24 01:46:19;;;;;;;13.73;8.48;;;3.50;69.20;;;;;;5015754;28;20117;-71
2021/03/24 01:48:53;;;;;;;14.63;8.55;;;3.50;69.10;;;;;;5016157;28;20030;-70
2021/03/24 01:51:35;;;;;;;14.57;9.40;;;3.50;69.10;;;;;;5015977;28;20030;-70
2021/03/24 01:54:03;;;;;;;15.10;9.07;;;3.50;69.20;;;;;;5016012;28;20026;-70
2021/03/24 01:56:30;;;;;;;13.27;7.63;;;3.50;69.30;;;;;;5015714;28;20101;-70
2021/03/24 01:58:57;;;;;;;13.65;8.13;;;3.50;69.30;;;;;;5012643;28;20077;-70
2021/03/24 02:01:23;;;;;;;13.50;8.52;;;3.50;69.40;;;;;;5015574;28;20104;-70
2021/03/24 02:03:51;;;;;;;13.10;8.25;;;3.50;69.30;;;;;;5014995;28;20054;-70
2021/03/24 02:06:20;;;;;;;15.05;8.55;;;3.50;69.20;;;;;;5015866;28;20022;-70
2021/03/24 02:08:54;;;;;;;13.43;8.32;;;3.50;69.30;;;;;;5015328;28;20025;-70
2021/03/24 02:11:46;;;;;;;13.55;8.77;;;3.50;69.40;;;;;;5016034;28;20422;-71
2021/03/24 02:14:36;;;;;;;13.82;8.10;;;3.50;69.50;;;;;;5004043;28;20023;-70
2021/03/24 02:17:04;;;;;;;12.60;7.38;;;3.40;69.40;;;;;;5010077;28;20030;-70
2021/03/24 02:19:50;;;;;;;13.20;7.85;;;3.40;69.50;;;;;;5014975;28;20034;-70
2021/03/24 02:22:20;;;;;;;14.65;8.35;;;3.50;69.70;;;;;;5023314;28;20045;-75
2021/03/24 02:25:03;;;;;;;12.32;7.28;;;3.50;69.60;;;;;;5023943;28;20041;-71
2021/03/24 02:27:35;;;;;;;11.82;7.50;;;3.50;69.40;;;;;;5022053;28;20105;-70
2021/03/24 02:30:16;;;;;;;14.35;8.38;;;3.40;69.10;;;;;;5017699;28;20459;-72
2021/03/24 02:32:48;;;;;;;13.02;7.93;;;3.40;69.90;;;;;;5021261;28;20033;-70
2021/03/24 02:35:22;;;;;;;13.13;7.30;;;3.40;69.30;;;;;;5022521;28;20026;-70
2021/03/24 02:37:48;;;;;;;12.73;7.45;;;3.40;69.50;;;;;;5023515;28;20029;-70
2021/03/24 02:40:18;;;;;;;14.00;8.25;;;3.30;69.40;;;;;;5024453;28;20037;-70
2021/03/24 02:42:47;;;;;;;13.07;7.35;;;3.30;69.40;;;;;;5023635;28;20448;-70
2021/03/24 02:45:16;;;;;;;11.45;7.20;;;3.30;69.40;;;;;;5022562;28;20021;-70
2021/03/24 02:47:45;;;;;;;13.10;7.97;;;3.30;69.60;;;;;;5020910;28;20059;-70
2021/03/24 02:50:12;;;;;;;13.18;7.30;;;3.30;69.70;;;;;;5022604;28;20035;-70
2021/03/24 02:52:38;;;;;;;13.63;7.40;;;3.30;69.70;;;;;;5024380;28;20030;-70
2021/03/24 02:55:07;;;;;;;13.20;7.78;;;3.30;69.50;;;;;;5023112;28;20486;-70
2021/03/24 02:57:33;;;;;;;15.65;8.02;;;3.30;69.60;;;;;;5022187;28;20025;-71
2021/03/24 02:59:58;;;;;;;13.65;7.05;;;3.30;69.60;;;;;;5019498;28;20471;-71
2021/03/24 03:02:28;;;;;;;14.98;8.18;;;3.30;69.70;;;;;;5023417;28;20045;-71
2021/03/24 03:05:10;;;;;;;12.00;6.93;;;3.30;69.70;;;;;;5024098;28;20025;-72
2021/03/24 03:07:44;;;;;;;14.23;7.25;;;3.20;70.40;;;;;;5023779;28;20025;-72
2021/03/24 03:10:23;;;;;;;11.37;7.37;;;3.20;69.70;;;;;;5024046;28;20038;-70
2021/03/24 03:13:02;;;;;;;13.85;7.72;;;3.20;69.80;;;;;;5020929;28;20472;-71
2021/03/24 03:15:41;;;;;;;11.57;7.15;;;3.20;70.00;;;;;;5021631;28;20032;-71
2021/03/24 03:18:22;;;;;;;10.57;6.82;;;3.20;70.00;;;;;;5021780;28;20014;-70
2021/03/24 03:20:53;;;;;;;14.98;7.32;;;3.20;70.00;;;;;;5021934;28;20136;-71
2021/03/24 03:23:26;;;;;;;11.82;7.35;;;3.20;70.20;;;;;;5015116;28;20029;-71
2021/03/24 03:26:17;;;;;;;12.80;7.50;;;3.20;70.00;;;;;;5021795;28;20025;-71
2021/03/24 03:28:46;;;;;;;14.60;7.65;;;3.20;70.20;;;;;;5020581;28;20022;-70
2021/03/24 03:31:20;;;;;;;12.27;6.97;;;3.20;70.10;;;;;;5020910;28;20463;-72
2021/03/24 03:33:50;;;;;;;13.10;6.93;;;3.20;70.50;;;;;;5021164;28;20049;-71
2021/03/24 03:36:16;;;;;;;13.90;7.90;;;3.20;70.30;;;;;;5021315;28;20069;-71
2021/03/24 03:38:44;;;;;;;14.27;7.43;;;3.20;71.10;;;;;;5021798;28;20396;-72
2021/03/24 03:41:12;;;;;;;14.50;7.65;;;3.20;70.40;;;;;;5021587;28;20029;-71
2021/03/24 03:43:43;;;;;;;12.38;7.82;;;3.30;71.10;;;;;;5021157;28;20018;-71
2021/03/24 03:46:14;;;;;;;14.15;7.35;;;3.30;70.40;;;;;;5021745;28;20181;-71
2021/03/24 03:48:40;;;;;;;14.13;7.85;;;3.30;70.60;;;;;;5018783;28;20025;-71
2021/03/24 03:51:10;;;;;;;15.40;8.40;;;3.30;70.60;;;;;;5022622;28;20028;-71
2021/03/24 03:53:51;;;;;;;13.50;7.70;;;3.30;71.00;;;;;;5023447;28;20022;-71
2021/03/24 03:56:31;;;;;;;13.32;8.05;;;3.30;70.40;;;;;;5023473;28;20021;-71
2021/03/24 03:59:07;;;;;;;14.50;8.38;;;3.30;70.30;;;;;;5023404;28;20053;-70
2021/03/24 04:01:39;;;;;;;15.43;9.20;;;3.30;70.20;;;;;;5022780;28;20061;-71
2021/03/24 04:04:23;;;;;;;15.68;9.02;;;3.20;70.20;;;;;;5020121;28;20025;-71
2021/03/24 04:07:06;;;;;;;13.77;8.07;;;3.20;70.40;;;;;;5021184;28;20055;-70
2021/03/24 04:09:35;;;;;;;12.65;7.53;;;3.20;70.60;;;;;;5021732;28;20088;-73
2021/03/24 04:12:04;;;;;;;15.52;7.90;;;3.20;70.40;;;;;;5018390;28;20022;-70
2021/03/24 04:14:30;;;;;;;15.43;8.13;;;3.20;70.40;;;;;;5021250;28;20490;-70
2021/03/24 04:16:56;;;;;;;15.77;8.18;;;3.20;70.50;;;;;;5022676;28;20021;-69
2021/03/24 04:19:25;;;;;;;12.48;7.95;;;3.20;70.50;;;;;;5021102;28;20109;-72
2021/03/24 04:21:56;;;;;;;12.90;7.65;;;3.20;70.50;;;;;;5021379;28;20132;-71
2021/03/24 04:24:29;;;;;;;13.73;7.60;;;3.20;70.50;;;;;;5018711;28;20112;-72
2021/03/24 04:27:01;;;;;;;14.80;7.38;;;3.30;70.70;;;;;;5020750;28;20052;-70
2021/03/24 04:29:38;;;;;;;14.05;8.10;;;3.30;70.80;;;;;;5023501;28;20060;-71
2021/03/24 04:32:05;;;;;;;12.23;7.38;;;3.40;70.60;;;;;;5018909;28;20105;-71
2021/03/24 04:34:32;;;;;;;16.60;8.27;;;3.40;70.60;;;;;;5021243;28;20018;-72
2021/03/24 04:37:16;;;;;;;13.45;8.25;;;3.40;70.60;;;;;;5022787;28;20108;-71
2021/03/24 04:39:50;;;;;;;13.30;7.53;;;3.50;70.40;;;;;;5018707;28;20033;-71
2021/03/24 04:42:20;;;;;;;14.30;7.40;;;3.60;70.30;;;;;;5022316;28;20022;-70
2021/03/24 04:44:51;;;;;;;14.23;7.63;;;3.60;70.10;;;;;;5026094;28;20040;-69
2021/03/24 04:47:24;;;;;;;17.25;8.48;;;3.60;70.00;;;;;;5026604;28;20052;-71
2021/03/24 04:50:19;;;;;;;13.82;7.60;;;3.60;70.20;;;;;;5026228;28;20395;-70
2021/03/24 04:52:45;;;;;;;12.85;7.95;;;3.60;70.30;;;;;;5025762;28;20021;-71
2021/03/24 04:55:15;;;;;;;11.40;7.30;;;3.60;70.10;;;;;;5025697;28;20030;-71
2021/03/24 04:57:41;;;;;;;14.98;7.30;;;3.60;70.30;;;;;;5021830;28;20017;-70
2021/03/24 05:00:24;;;;;;;13.27;7.30;;;3.70;70.20;;;;;;5025506;28;20037;-72
2021/03/24 05:02:55;;;;;;;16.85;8.02;;;3.60;70.00;;;;;;5024396;28;20050;-71
2021/03/24 05:05:25;;;;;;;13.60;7.50;;;3.70;70.20;;;;;;5021539;28;20108;-70
2021/03/24 05:08:19;;;;;;;14.82;7.00;;;3.70;70.00;;;;;;5024995;28;20101;-71
2021/03/24 05:10:45;;;;;;;14.45;7.88;;;3.70;69.60;;;;;;4997230;28;20042;-70
2021/03/24 05:13:25;;;;;;;13.43;7.80;;;3.70;69.60;;;;;;5033029;28;20039;-70
2021/03/24 05:16:17;;;;;;;13.52;7.07;;;3.70;69.80;;;;;;5036303;28;20467;-71
2021/03/24 05:18:43;;;;;;;16.02;8.18;;;3.70;69.80;;;;;;5027324;28;20080;-70
2021/03/24 05:21:34;;;;;;;16.02;7.80;;;3.70;69.80;;;;;;5026696;28;20022;-70
2021/03/24 05:24:01;;;;;;;14.45;7.05;;;3.80;69.70;;;;;;5025830;28;20033;-71
2021/03/24 05:26:37;;;;;;;12.65;7.13;;;3.80;69.70;;;;;;5022425;28;20478;-71
2021/03/24 05:29:14;;;;;;;15.23;8.43;;;3.80;69.70;;;;;;5024547;28;20328;-71
2021/03/24 05:31:44;;;;;;;12.82;7.20;;;3.80;69.60;;;;;;5024914;28;20034;-70
2021/03/24 05:34:28;;;;;;;14.98;7.85;;;3.70;70.00;;;;;;5023026;28;20041;-71
2021/03/24 05:36:55;;;;;;;13.77;7.68;;;3.70;69.70;;;;;;5025800;28;20022;-71
2021/03/24 05:39:31;;;;;;;12.50;7.82;;;3.70;69.80;;;;;;5025775;28;20120;-72
2021/03/24 05:42:20;;;;;;;14.93;6.82;;;3.80;70.10;;;;;;5022956;28;20117;-72
2021/03/24 05:45:23;;;;;;;12.45;6.93;;;3.80;69.90;;;;;;5016353;28;20056;-71
2021/03/24 05:48:07;;;;;;;11.70;6.60;;;3.90;70.00;;;;;;5016136;28;20396;-71
2021/03/24 05:50:39;;;;;;;12.85;7.35;;;3.90;69.90;;;;;;5015729;28;20105;-71
2021/03/24 05:53:23;;;;;;;15.00;7.18;;;3.90;69.60;;;;;;5014627;28;20026;-72
2021/03/24 05:55:59;;;;;;;16.02;8.23;;;4.00;69.80;;;;;;5015571;28;20026;-70
2021/03/24 05:58:42;;;;;;;14.15;6.80;;;4.00;69.70;;;;;;5015571;28;20396;-71
2021/03/24 06:01:17;;;;;;;13.68;7.00;;;4.00;69.80;;;;;;5015055;28;20050;-72
2021/03/24 06:04:07;;;;;;;12.30;7.10;;;4.10;69.70;;;;;;5010654;28;20468;-70
2021/03/24 06:07:10;;;;;;;11.68;6.80;;;4.10;69.60;;;;;;4995904;28;20038;-71
2021/03/24 06:09:49;;;;;;;10.90;6.38;;;4.20;69.90;;;;;;4995693;28;20434;-71
2021/03/24 06:12:51;;;;;;;12.85;7.35;;;4.40;69.90;;;;;;4996419;28;20088;-71
2021/03/24 06:15:41;;;;;;;11.30;6.63;;;4.50;69.70;;;;;;4995594;28;20114;-72
2021/03/24 06:18:38;;;;;;;12.43;7.18;;;4.60;69.70;;;;;;4995984;28;20026;-71
2021/03/24 06:21:30;;;;;;;14.40;7.95;;;4.80;69.60;;;;;;5000521;28;20042;-71
2021/03/24 06:24:01;;;;;;;16.17;7.38;;;4.90;69.10;;;;;;5015279;28;20105;-70
2021/03/24 06:26:48;;;;;;;15.27;8.18;;;5.00;68.70;;;;;;5014224;28;20033;-70
2021/03/24 06:29:52;;;;;;;11.43;6.05;;;5.00;68.40;;;;;;5014994;28;20038;-70
2021/03/24 06:32:47;;;;;;;12.35;7.10;;;5.10;68.60;;;;;;4995168;28;20038;-71
2021/03/24 06:35:28;;;;;;;15.85;7.03;;;5.20;68.40;;;;;;5015578;28;20024;-70
2021/03/24 06:37:56;;;;;;;13.02;7.00;;;5.30;68.20;;;;;;5014871;28;20061;-70
2021/03/24 06:40:36;;;;;;;12.90;7.65;;;5.40;67.70;;;;;;5014738;28;20034;-71
2021/03/24 06:43:39;;;;;;;12.55;7.38;;;5.40;67.50;;;;;;5015056;28;20033;-71
2021/03/24 06:46:12;;;;;;;11.13;6.80;;;5.40;67.40;;;;;;5013553;28;20464;-71
2021/03/24 06:48:50;;;;;;;12.15;6.70;;;5.50;67.20;;;;;;5014823;28;20403;-71
2021/03/24 06:51:53;;;;;;;13.57;7.07;;;5.50;67.20;;;;;;5014607;28;20030;-70
2021/03/24 06:54:19;;;;;;;12.95;6.90;;;5.60;66.80;;;;;;5014419;28;20100;-71
2021/03/24 06:56:53;;;;;;;12.73;7.22;;;5.70;66.80;;;;;;5014526;28;20468;-71
2021/03/24 06:59:19;;;;;;;12.93;7.20;;;5.80;66.70;;;;;;5014871;28;20033;-70
2021/03/24 07:02:04;;;;;;;13.13;7.00;;;5.90;66.80;;;;;;5013097;28;20108;-70
2021/03/24 07:05:03;;;;;;;13.68;7.63;;;6.10;66.30;;;;;;5013931;28;20022;-71
2021/03/24 07:08:06;;;;;;;12.07;7.30;;;6.30;65.70;;;;;;5014448;28;20029;-71
2021/03/24 07:10:50;;;;;;;12.00;7.65;;;6.40;65.40;;;;;;5014183;28;20064;-71
2021/03/24 07:13:53;;;;;;;14.43;7.78;;;6.60;64.70;;;;;;5014533;28;20022;-71
2021/03/24 07:16:49;;;;;;;11.68;7.05;;;6.70;64.00;;;;;;5014921;28;20029;-70
2021/03/24 07:19:39;;;;;;;13.93;7.65;;;6.70;63.70;;;;;;5012481;28;20504;-70
2021/03/24 07:22:21;;;;;;;11.30;7.10;;;6.70;63.30;;;;;;5014113;28;20527;-71
2021/03/24 07:25:08;;;;;;;14.23;7.43;;;6.70;63.30;;;;;;5013982;28;20033;-71
2021/03/24 07:28:01;;;;;;;11.98;7.10;;;6.70;62.60;;;;;;5013703;28;20345;-71
2021/03/24 07:30:41;;;;;;;11.50;7.18;;;6.80;62.50;;;;;;5013754;28;20036;-72
2021/03/24 07:33:29;;;;;;;12.20;7.47;;;6.80;62.40;;;;;;5014233;28;20478;-71
2021/03/24 07:36:21;;;;;;;14.75;7.57;;;6.90;62.20;;;;;;5032036;28;20037;-72
2021/03/24 07:39:31;;;;;;;11.88;7.32;;;7.00;62.00;;;;;;5013717;28;20040;-70
2021/03/24 07:42:09;;;;;;;12.95;7.55;;;7.20;61.70;;;;;;5003360;28;20038;-71
2021/03/24 07:44:56;;;;;;;12.45;7.63;;;7.40;61.60;;;;;;5013844;28;20514;-71
2021/03/24 07:47:34;;;;;;;12.35;7.70;;;7.60;61.10;;;;;;5013821;28;20468;-71
2021/03/24 07:50:12;;;;;;;12.10;7.90;;;7.80;60.40;;;;;;5016765;28;20443;-71
2021/03/24 07:52:50;;;;;;;12.68;8.10;;;8.00;60.20;;;;;;5022716;28;20052;-70
2021/03/24 07:55:23;;;;;;;13.50;8.40;;;8.20;60.30;;;;;;5026957;28;20022;-73
2021/03/24 07:58:07;;;;;;;14.23;8.15;;;8.40;60.60;;;;;;5014445;28;20476;-71
2021/03/24 08:01:12;;;;;;;14.77;9.20;;;8.50;60.50;;;;;;5013391;28;20030;-72
2021/03/24 08:04:02;;;;;;;11.77;8.17;;;8.50;60.80;;;;;;5020378;28;20454;-71
2021/03/24 08:07:10;;;;;;;13.73;8.75;;;8.50;61.10;;;;;;5013249;28;20305;-70
2021/03/24 08:09:51;;;;;;;13.68;8.60;;;8.50;60.90;;;;;;5006086;28;20556;-73
2021/03/24 08:12:34;;;;;;;14.88;9.43;;;8.50;61.00;;;;;;5013542;28;20034;-72
2021/03/24 08:15:38;;;;;;;13.60;8.68;;;8.60;61.10;;;;;;5013799;28;20456;-71
2021/03/24 08:18:04;;;;;;;12.48;8.43;;;8.80;60.80;;;;;;5011376;28;20034;-71
2021/03/24 08:20:50;;;;;;;16.02;8.98;;;8.90;60.10;;;;;;5015893;28;20060;-71
2021/03/24 08:23:36;;;;;;;13.18;8.05;;;8.90;59.00;;;;;;5019106;28;20041;-73
2021/03/24 08:26:10;;;;;;;15.60;9.32;;;9.00;58.40;;;;;;5000537;28;20060;-72
2021/03/24 08:29:15;;;;;;;13.63;8.57;;;8.90;57.70;;;;;;5019171;28;20555;-72
2021/03/24 08:31:50;;;;;;;13.45;8.90;;;8.70;57.40;;;;;;5021014;28;20034;-71
2021/03/24 08:34:58;;;;;;;12.20;8.30;;;8.80;57.80;;;;;;5017795;28;20021;-74
2021/03/24 08:37:50;;;;;;;13.00;8.70;;;8.90;57.40;;;;;;5001344;28;20066;-71
2021/03/24 08:40:37;;;;;;;13.95;8.13;;;9.10;57.30;;;;;;5018912;28;20034;-74
2021/03/24 08:43:16;;;;;;;11.82;8.45;;;9.30;56.80;;;;;;5021446;28;20076;-71
2021/03/24 08:46:17;;;;;;;12.48;8.18;;;9.50;56.30;;;;;;5021792;28;20029;-71
2021/03/24 08:48:45;;;;;;;14.25;8.25;;;9.60;55.70;;;;;;4998740;28;20045;-71
2021/03/24 08:51:26;;;;;;;13.48;8.60;;;9.60;55.40;;;;;;5020636;28;20030;-72
2021/03/24 08:54:09;;;;;;;13.55;8.82;;;9.60;54.60;;;;;;5020463;28;20105;-72
2021/03/24 08:56:53;;;;;;;13.32;8.90;;;9.60;54.40;;;;;;5017863;28;20026;-71
2021/03/24 08:59:27;;;;;;;15.38;9.68;;;9.50;54.10;;;;;;5017692;28;20407;-72
2021/03/24 09:02:20;;;;;;;15.50;8.63;;;9.50;54.40;;;;;;5026425;28;20140;-71
2021/03/24 09:05:17;;;;;;;12.30;8.18;;;9.50;54.10;;;;;;5032471;28;20429;-72
2021/03/24 09:07:59;;;;;;;13.88;8.65;;;9.60;53.90;;;;;;5032570;28;20033;-71
2021/03/24 09:10:44;;;;;;;12.52;7.95;;;9.70;53.90;;;;;;5032499;28;20531;-71
2021/03/24 09:13:33;;;;;;;13.13;8.75;;;9.80;53.80;;;;;;5032493;28;20021;-70
2021/03/24 09:16:20;;;;;;;12.57;7.80;;;10.20;53.80;;;;;;5032339;28;20037;-70
2021/03/24 09:18:53;;;;;;;14.15;8.52;;;10.80;53.00;;;;;;5031223;28;20047;-71
2021/03/24 09:21:41;;;;;;;12.82;9.00;;;11.20;52.00;;;;;;5012884;28;20606;-71
2021/03/24 09:24:12;;;;;;;13.35;8.43;;;11.30;50.90;;;;;;5012648;28;20076;-72
2021/03/24 09:26:59;;;;;;;13.35;8.98;;;11.30;50.60;;;;;;5012685;28;20030;-71
2021/03/24 09:29:50;;;;;;;11.07;7.63;;;11.30;50.50;;;;;;5016203;28;20103;-71
2021/03/24 09:32:33;;;;;;;11.23;8.13;;;11.30;50.50;;;;;;5016518;28;20026;-71
2021/03/24 09:35:11;;;;;;;10.57;7.82;;;11.30;50.50;;;;;;5016525;28;20038;-70
2021/03/24 09:37:46;;;;;;;11.88;8.35;;;11.30;50.40;;;;;;5016021;28;20159;-71
2021/03/24 09:40:24;;;;;;;11.18;7.90;;;11.10;49.60;;;;;;5016116;28;20503;-70
2021/03/24 09:42:53;;;;;;;12.25;8.40;;;11.00;49.70;;;;;;5016154;28;20113;-71
2021/03/24 09:45:33;;;;;;;14.35;8.40;;;10.90;49.70;;;;;;5015895;28;20018;-71
2021/03/24 09:48:10;;;;;;;11.13;8.32;;;10.90;49.40;;;;;;5016300;28;20022;-72
2021/03/24 09:51:04;;;;;;;12.05;8.15;;;11.00;49.40;;;;;;5015968;28;20038;-70
2021/03/24 09:53:32;;;;;;;13.07;7.78;;;11.10;49.40;;;;;;5016372;28;20108;-71
2021/03/24 09:56:17;;;;;;;11.55;8.02;;;11.30;49.40;;;;;;5015388;28;20034;-71
2021/03/24 09:59:10;;;;;;;13.25;8.05;;;11.60;48.60;;;;;;5015535;28;20072;-73
2021/03/24 10:01:54;;;;;;;11.38;7.63;;;11.90;48.00;;;;;;5015575;28;20057;-70
2021/03/24 10:04:50;;;;;;;10.50;7.47;;;12.20;47.30;;;;;;5015860;28;20129;-70
2021/03/24 10:07:20;;;;;;;10.35;7.50;;;12.40;47.00;;;;;;5015423;28;20048;-70
2021/03/24 10:09:55;;;;;;;11.13;7.97;;;12.80;46.80;;;;;;5015665;28;20030;-71
2021/03/24 10:12:24;;;;;;;10.32;7.40;;;13.30;45.90;;;;;;5015843;28;20026;-72
2021/03/24 10:15:45;;;;;;;10.07;7.15;;;13.70;45.70;;;;;;4998282;28;20041;-71
2021/03/24 10:18:39;;;;;;;10.43;7.97;;;14.40;44.80;;;;;;5003417;28;20038;-71
2021/03/24 10:21:17;;;;;;;9.77;7.45;;;15.90;44.20;;;;;;5015815;28;20030;-71
2021/03/24 10:23:53;;;;;;;10.35;8.20;;;17.60;43.70;;;;;;5015164;28;20029;-72
2021/03/24 10:26:26;;;;;;;10.00;8.07;;;19.30;41.90;;;;;;5015329;28;20034;-71
2021/03/24 10:28:52;;;;;;;9.00;7.30;;;20.50;39.80;;;;;;5015027;28;20037;-71
2021/03/24 10:31:40;;;;;;;9.02;7.75;;;21.50;38.00;;;;;;5015346;28;20478;-71
2021/03/24 10:34:18;;;;;;;8.90;7.40;;;22.50;35.40;;;;;;5015350;28;20029;-72
2021/03/24 10:37:05;;;;;;;9.85;7.57;;;23.40;34.10;;;;;;5015126;28;20064;-71
2021/03/24 10:39:43;;;;;;;8.82;7.82;;;24.10;32.80;;;;;;5014537;28;20038;-71
2021/03/24 10:42:41;;;;;;;11.35;8.75;;;24.90;32.40;;;;;;5015029;28;20427;-72
2021/03/24 10:45:22;;;;;;;8.35;7.00;;;25.70;31.90;;;;;;4979965;28;20065;-71
2021/03/24 10:48:13;;;;;;;8.30;7.30;;;26.00;30.90;;;;;;5015273;28;20092;-71
2021/03/24 10:50:46;;;;;;;10.80;8.13;;;25.50;29.90;;;;;;5014504;28;20466;-71
2021/03/24 10:53:23;;;;;;;8.18;7.35;;;24.00;29.90;;;;;;5014868;28;20030;-71
2021/03/24 10:56:14;;;;;;;9.30;7.43;;;22.50;30.20;;;;;;5014638;28;20109;-71
2021/03/24 10:58:43;;;;;;;10.80;8.02;;;21.80;31.10;;;;;;5014751;28;20384;-73
2021/03/24 11:01:30;;;;;;;8.90;7.28;;;21.30;31.30;;;;;;5014300;28;20042;-72
2021/03/24 11:04:02;;;;;;;22.17;13.52;;;20.40;31.30;;;;;;5014780;28;20033;-71
2021/03/24 11:06:38;;;;;;;11.13;8.38;;;19.40;31.80;;;;;;5014952;28;20404;-72
2021/03/24 11:09:14;;;;;;;12.68;9.32;;;18.70;32.50;;;;;;5014393;28;20022;-71
2021/03/24 11:11:45;;;;;;;13.40;8.88;;;18.80;32.80;;;;;;5014489;28;20091;-72
2021/03/24 11:14:22;;;;;;;12.32;8.82;;;18.90;33.00;;;;;;5014604;28;20029;-72
2021/03/24 11:17:03;;;;;;;9.82;8.40;;;19.00;33.00;;;;;;5014195;28;20022;-71
2021/03/24 11:19:34;;;;;;;11.80;8.32;;;19.10;33.30;;;;;;5014334;28;20042;-72
2021/03/24 11:22:37;;;;;;;9.40;7.85;;;19.90;33.50;;;;;;5014184;28;20037;-71
2021/03/24 11:25:05;;;;;;;10.63;7.60;;;20.90;32.60;;;;;;5014123;28;20068;-73
2021/03/24 11:27:51;;;;;;;11.32;8.23;;;22.30;32.60;;;;;;5013927;28;20026;-71
2021/03/24 11:30:19;;;;;;;11.05;7.95;;;22.70;31.30;;;;;;5014635;28;20084;-71
2021/03/24 11:32:57;;;;;;;10.45;7.55;;;22.20;30.70;;;;;;5014193;28;20093;-72
2021/03/24 11:35:46;;;;;;;14.80;8.73;;;21.50;30.70;;;;;;5013851;28;20494;-71
2021/03/24 11:38:41;;;;;;;9.68;7.70;;;21.20;31.30;;;;;;5006292;28;20037;-71
2021/03/24 11:41:11;;;;;;;12.70;10.05;;;21.50;31.50;;;;;;5013035;28;20096;-71
2021/03/24 11:43:42;;;;;;;14.35;10.52;;;21.40;31.30;;;;;;5014042;28;20037;-73
2021/03/24 11:46:21;;;;;;;14.85;10.27;;;20.70;31.20;;;;;;5013985;28;20022;-71
2021/03/24 11:48:52;;;;;;;16.00;11.85;;;19.60;31.40;;;;;;5013943;28;20026;-69
2021/03/24 11:51:44;;;;;;;11.63;9.38;;;18.50;32.20;;;;;;5012645;28;20104;-71
2021/03/24 11:54:13;;;;;;;13.02;10.15;;;17.50;33.20;;;;;;5017859;28;20021;-72
2021/03/24 11:56:57;;;;;;;15.75;10.23;;;16.80;34.00;;;;;;5020564;28;20030;-78
2021/03/24 11:59:35;;;;;;;12.65;9.48;;;16.00;34.70;;;;;;5020723;28;20033;-71
2021/03/24 12:02:26;;;;;;;14.10;10.60;;;15.40;35.40;;;;;;5020248;28;20053;-73
2021/03/24 12:05:11;;;;;;;15.07;10.30;;;15.00;36.10;;;;;;5022734;28;20029;-72
2021/03/24 12:07:46;;;;;;;;;;;14.70;36.70;;;;;;5019752;28;20034;-72
2021/03/24 12:10:11;;;;;;;15.43;10.90;;;14.20;36.50;;;;;;5019726;28;19909;-72
2021/03/24 12:12:38;;;;;;;14.52;10.10;;;13.70;37.20;;;;;;5022630;28;20149;-73
2021/03/24 12:15:12;;;;;;;14.65;10.27;;;13.30;38.10;;;;;;5022409;28;20032;-72
2021/03/24 12:17:38;;;;;;;16.00;11.27;;;13.10;38.90;;;;;;5019550;28;20029;-73
2021/03/24 12:20:13;;;;;;;12.98;9.93;;;12.90;39.20;;;;;;5021341;28;20471;-71
2021/03/24 12:22:49;;;;;;;16.17;10.02;;;12.90;39.60;;;;;;5018144;28;20065;-73
2021/03/24 12:25:24;;;;;;;11.77;9.30;;;12.90;39.60;;;;;;5013539;28;20041;-71
2021/03/24 12:27:59;;;;;;;12.60;9.52;;;13.10;39.50;;;;;;5013220;28;20038;-72
2021/03/24 12:30:25;;;;;;;12.88;9.07;;;13.20;39.40;;;;;;5013207;28;20037;-72
2021/03/24 12:32:51;;;;;;;11.55;8.98;;;13.30;39.40;;;;;;5012983;28;20125;-71
2021/03/24 12:35:27;;;;;;;11.77;8.85;;;13.30;39.40;;;;;;5013043;28;20022;-71
2021/03/24 12:38:05;;;;;;;12.10;8.90;;;13.30;39.40;;;;;;5013072;28;20440;-72
2021/03/24 12:40:31;;;;;;;14.80;9.43;;;13.20;39.40;;;;;;5031809;28;20048;-71
2021/03/24 12:43:20;;;;;;;10.02;8.05;;;13.10;39.80;;;;;;5029755;28;20104;-71
2021/03/24 12:45:46;;;;;;;13.13;8.90;;;13.00;39.70;;;;;;5032838;28;20104;-72
2021/03/24 12:48:24;;;;;;;12.60;8.98;;;12.70;39.80;;;;;;5032120;28;20503;-72
2021/03/24 12:51:13;;;;;;;12.50;8.32;;;12.40;40.20;;;;;;5032669;28;20037;-72
2021/03/24 12:53:53;;;;;;;11.23;8.48;;;12.10;40.80;;;;;;5032662;28;20029;-72
2021/03/24 12:56:54;;;;;;;11.85;7.72;;;11.90;41.40;;;;;;5032491;28;20022;-72
2021/03/24 12:59:39;;;;;;;11.05;6.85;;;11.90;41.50;;;;;;5032202;28;20109;-71
2021/03/24 13:02:26;;;;;;;8.90;6.70;;;12.10;41.30;;;;;;5025022;28;20065;-73
2021/03/24 13:04:59;;;;;;;9.23;6.25;;;12.00;41.00;;;;;;5009165;28;20092;-72
2021/03/24 13:07:40;;;;;;;10.13;6.97;;;11.90;41.30;;;;;;5016598;28;20056;-71
2021/03/24 13:10:39;;;;;;;11.60;6.88;;;11.90;41.70;;;;;;5025203;28;20083;-73
2021/03/24 13:13:17;;;;;;;9.90;7.30;;;12.00;41.90;;;;;;5025374;28;20388;-72
2021/03/24 13:15:50;;;;;;;11.23;8.10;;;12.10;41.70;;;;;;5024812;28;20026;-72
2021/03/24 13:18:25;;;;;;;8.80;6.55;;;12.10;41.50;;;;;;5023143;28;20048;-72
2021/03/24 13:21:02;;;;;;;9.95;6.43;;;11.80;41.50;;;;;;5017796;28;20038;-73
2021/03/24 13:23:51;;;;;;;11.50;7.80;;;11.60;41.80;;;;;;5022737;28;20353;-71
2021/03/24 13:26:33;;;;;;;10.30;6.20;;;11.50;42.10;;;;;;5022836;28;20110;-71
2021/03/24 13:29:27;;;;;;;8.43;5.53;;;11.20;42.30;;;;;;5023485;28;20529;-73
2021/03/24 13:32:17;;;;;;;10.57;7.13;;;11.10;42.20;;;;;;5021755;28;20026;-75
2021/03/24 13:35:12;;;;;;;6.85;5.22;;;10.80;42.90;;;;;;5024585;28;20037;-74
2021/03/24 13:37:38;;;;;;;10.55;6.75;;;10.60;42.50;;;;;;5023201;28;20029;-75